Portena, Argentina
Current Conditions -  °F | °C
As of 6:00 PM on Friday 28 Nov 2014 (Local Time) from SACO Reporting Station
Scattered Clouds Scattered Clouds  
Wind Chill: 82°   Ceiling: Unl
Heat Index: 82°   Visibility: 6mi
Dew Point: 57°   Wind: 20mph
Humidity: 42%   Direction: 20°NNE
Pressure: 29.8"   Gusts: NA
Location:  31.02°S, 62.07°W
Report Text: SACO 282100Z 02017KT 9999 FEW030 SCT100 28/14 Q1009
Loading
Personal Weather Stations






























Interactive Weather Map New forecast layout! Learn more

10-Day Weather Forecast

Advertisements
Track Severe Weather on mobile